createdAt,value
2018-12-24T00:00:32.790Z,23.3
2018-12-24T00:01:22.300Z,23.4
2018-12-24T00:02:12.352Z,23.4
2018-12-24T00:03:03.076Z,23.4
2018-12-24T00:03:52.792Z,22.8
2018-12-24T00:04:41.960Z,22.3
2018-12-24T00:05:33.397Z,21.9
2018-12-24T00:06:21.837Z,21.5
2018-12-24T00:07:12.460Z,21.3
2018-12-24T00:08:03.365Z,21.1
2018-12-24T00:08:52.633Z,20.8
2018-12-24T00:09:43.440Z,20.7
2018-12-24T00:10:33.576Z,20.6
2018-12-24T00:11:23.290Z,20.4
2018-12-24T00:12:16.209Z,20.3
2018-12-24T00:13:03.972Z,20.2
2018-12-24T00:13:52.619Z,20
2018-12-24T00:14:43.222Z,19.8
2018-12-24T00:32:48.580Z,22.8
2018-12-24T00:33:37.824Z,22.9
2018-12-24T00:34:27.353Z,22.9
2018-12-24T00:35:18.254Z,23
2018-12-24T00:36:08.575Z,23.1
2018-12-24T00:36:58.081Z,23.1
2018-12-24T00:37:48.738Z,22.8
2018-12-24T00:38:37.401Z,22.1
2018-12-24T00:39:28.528Z,21.2
2018-12-24T00:40:18.803Z,20.6
2018-12-24T00:41:08.738Z,19.9
2018-12-24T00:41:58.688Z,19.3
2018-12-24T00:42:49.034Z,18.4
2018-12-24T00:43:38.788Z,18.4
2018-12-24T00:44:29.127Z,18.4
2018-12-24T00:45:18.755Z,19.2
2018-12-24T00:46:09.240Z,19.8
2018-12-24T00:46:58.758Z,20.4
2018-12-24T00:47:49.634Z,20.8
2018-12-24T00:48:39.470Z,21.2
2018-12-24T00:49:29.031Z,21.5
2018-12-24T00:50:19.573Z,21.8
2018-12-24T00:51:08.805Z,21.9
2018-12-24T00:51:57.718Z,22.2
2018-12-24T00:52:50.368Z,22.3
2018-12-24T00:53:39.468Z,22.5
2018-12-24T00:54:29.815Z,22.6
2018-12-24T00:55:17.807Z,22.8
2018-12-24T00:56:09.370Z,22.8
2018-12-24T00:56:59.737Z,22.9
2018-12-24T00:57:50.125Z,23
2018-12-24T00:58:39.542Z,23.1
2018-12-24T00:59:29.882Z,23.2
2018-12-24T01:00:20.320Z,23.3
2018-12-24T01:01:10.589Z,23.3
2018-12-24T01:02:00.456Z,23.3
2018-12-24T01:02:50.115Z,23.4
2018-12-24T01:03:40.744Z,23.5
2018-12-24T01:04:30.288Z,23.4
2018-12-24T01:05:19.734Z,22.8
2018-12-24T01:06:10.969Z,22.3
2018-12-24T01:07:00.102Z,21.9
2018-12-24T01:07:50.220Z,21.5
2018-12-24T01:08:40.845Z,21.3
2018-12-24T01:09:30.716Z,21.1
2018-12-24T01:10:21.000Z,20.9
2018-12-24T01:11:09.686Z,20.7
2018-12-24T01:12:02.396Z,20.6
2018-12-24T01:12:50.231Z,20.4
2018-12-24T01:13:40.034Z,20.3
2018-12-24T01:14:30.876Z,20.2
2018-12-24T01:15:21.294Z,20
2018-12-24T01:16:11.037Z,19.8
2018-12-24T01:17:01.156Z,19.6
2018-12-24T01:17:50.851Z,19.4
2018-12-24T01:18:40.953Z,19.3
2018-12-24T01:19:30.793Z,19.2
2018-12-24T01:20:21.363Z,19.3
2018-12-24T01:21:10.726Z,19.9
2018-12-24T01:22:01.696Z,20.4
2018-12-24T01:22:50.677Z,20.8
2018-12-24T01:23:40.946Z,21.1
2018-12-24T01:24:30.819Z,21.3
2018-12-24T01:25:21.470Z,21.6
2018-12-24T01:26:11.773Z,21.8
2018-12-24T01:27:01.005Z,21.9
2018-12-24T01:27:52.010Z,22.1
2018-12-24T01:28:41.393Z,22.3
2018-12-24T01:29:30.942Z,22.4
2018-12-24T01:30:22.307Z,22.5
2018-12-24T01:31:12.322Z,22.6
2018-12-24T01:32:01.835Z,22.7
2018-12-24T01:32:52.400Z,22.8
2018-12-24T01:33:41.720Z,22.8
2018-12-24T01:34:32.358Z,22.9
2018-12-24T01:35:22.330Z,22.9
2018-12-24T01:36:12.624Z,23
2018-12-24T01:37:04.277Z,23.1
2018-12-24T01:37:52.470Z,23.1
2018-12-24T01:38:42.713Z,23.2
2018-12-24T01:39:32.617Z,23.2
2018-12-24T01:40:22.680Z,23.3
2018-12-24T01:41:12.202Z,23.3
2018-12-24T01:42:02.281Z,23.3
2018-12-24T01:42:52.846Z,23.3
2018-12-24T01:43:41.929Z,22.8
2018-12-24T01:44:32.771Z,22.3
2018-12-24T01:45:22.804Z,21.9
2018-12-24T01:46:13.079Z,21.5
2018-12-24T01:47:02.581Z,21.3
2018-12-24T01:47:53.149Z,21.1
2018-12-24T01:48:43.264Z,20.8
2018-12-24T01:49:32.761Z,20.7
2018-12-24T01:50:22.521Z,20.5
2018-12-24T01:51:12.566Z,20.4
2018-12-24T01:52:03.476Z,20.3
2018-12-24T01:52:54.068Z,20.1
2018-12-24T01:53:43.928Z,20.1
2018-12-24T01:54:32.832Z,19.9
2018-12-24T01:55:23.453Z,19.8
2018-12-24T01:56:12.986Z,19.6
2018-12-24T01:57:03.298Z,19.4
2018-12-24T01:57:53.296Z,19.3
2018-12-24T01:58:43.417Z,19.4
2018-12-24T01:59:33.901Z,19.9
2018-12-24T02:00:24.411Z,20.4
2018-12-24T02:01:14.356Z,20.7
2018-12-24T02:02:04.235Z,20.9
2018-12-24T02:02:54.213Z,21.3
2018-12-24T02:03:45.313Z,21.4
2018-12-24T02:04:34.042Z,21.6
2018-12-24T02:05:23.560Z,21.8
2018-12-24T02:06:13.865Z,21.9
2018-12-24T02:07:04.775Z,22.1
2018-12-24T02:07:55.217Z,22.2
2018-12-24T02:08:45.222Z,22.3
2018-12-24T02:09:34.642Z,22.4
2018-12-24T02:10:24.442Z,22.4
2018-12-24T02:11:13.902Z,22.5
2018-12-24T02:12:05.778Z,22.6
2018-12-24T02:12:54.609Z,22.6
2018-12-24T02:13:44.672Z,22.7
2018-12-24T02:14:35.152Z,22.8
2018-12-24T02:15:24.807Z,22.8
2018-12-24T02:16:15.647Z,22.9
2018-12-24T02:17:05.252Z,22.9
2018-12-24T02:17:54.501Z,22.4
2018-12-24T02:18:45.222Z,21.7
2018-12-24T02:19:35.954Z,20.8
2018-12-24T02:20:24.392Z,20.3
2018-12-24T02:21:14.961Z,19.7
2018-12-24T02:22:14.790Z,18.9
2018-12-24T02:22:55.409Z,18.1
2018-12-24T02:23:45.926Z,18.2
2018-12-24T02:24:36.039Z,18.2
2018-12-24T02:25:25.209Z,18.9
2018-12-24T02:26:16.385Z,19.6
2018-12-24T02:27:05.296Z,20.2
2018-12-24T02:27:55.871Z,20.6
2018-12-24T02:28:46.251Z,21.1
2018-12-24T02:29:36.296Z,21.3
2018-12-24T02:30:26.887Z,21.6
2018-12-24T02:31:16.343Z,21.8
2018-12-24T02:32:06.394Z,22
2018-12-24T02:32:56.094Z,22.2
2018-12-24T02:33:46.663Z,22.3
2018-12-24T02:34:35.573Z,22.4
2018-12-24T02:35:26.649Z,22.6
2018-12-24T02:36:17.102Z,22.7
2018-12-24T02:37:06.358Z,22.8
2018-12-24T02:37:56.620Z,22.9
2018-12-24T02:38:46.231Z,23
2018-12-24T02:39:37.183Z,23.1
2018-12-24T02:40:27.138Z,23.1
2018-12-24T02:41:17.650Z,23.2
2018-12-24T02:42:06.821Z,23.3
2018-12-24T02:43:00.589Z,23.4
2018-12-24T02:43:46.511Z,23.4
2018-12-24T02:44:37.185Z,23.5
2018-12-24T02:45:26.637Z,23.1
2018-12-24T02:46:16.725Z,22.5
2018-12-24T02:47:07.597Z,22.1
2018-12-24T02:47:57.743Z,21.6
2018-12-24T02:48:47.118Z,21.4
2018-12-24T02:50:28.098Z,20.9
2018-12-24T02:51:17.575Z,20.8
2018-12-24T02:52:07.542Z,20.6
2018-12-24T02:52:57.651Z,20.4
2018-12-24T02:53:48.147Z,20.3
2018-12-24T02:54:38.370Z,20.3
2018-12-24T02:55:27.577Z,20.1
2018-12-24T02:56:17.647Z,19.9
2018-12-24T02:57:07.862Z,19.7
2018-12-24T02:57:58.147Z,19.5
2018-12-24T02:58:48.102Z,19.4
2018-12-24T02:59:37.366Z,19.3
2018-12-24T03:00:28.361Z,19.1
2018-12-24T03:01:18.624Z,19.5
2018-12-24T03:02:08.372Z,20.1
2018-12-24T03:02:58.674Z,20.5
2018-12-24T03:03:47.677Z,20.8
2018-12-24T03:05:27.749Z,21.4
2018-12-24T03:06:17.993Z,21.6
2018-12-24T03:07:07.966Z,21.8
2018-12-24T03:07:58.747Z,21.9
2018-12-24T03:08:49.459Z,22.1
2018-12-24T03:09:39.064Z,22.2
2018-12-24T03:10:28.233Z,22.3
2018-12-24T03:11:18.389Z,22.4
2018-12-24T03:12:08.807Z,22.5
2018-12-24T03:13:10.306Z,22.6
2018-12-24T03:13:48.081Z,22.7
2018-12-24T03:14:39.833Z,22.8
2018-12-24T03:15:29.762Z,22.8
2018-12-24T03:16:19.367Z,22.9
2018-12-24T03:17:09.186Z,22.9
2018-12-24T03:17:58.782Z,23
2018-12-24T03:18:49.431Z,23.1
2018-12-24T03:19:39.107Z,23.1
2018-12-24T03:20:29.383Z,23.1
2018-12-24T03:21:18.975Z,23.2
2018-12-24T03:22:08.757Z,23.3
2018-12-24T03:22:58.523Z,23.3
2018-12-24T03:23:49.364Z,23.3
2018-12-24T03:24:39.657Z,22.8
2018-12-24T03:25:29.446Z,22.2
2018-12-24T03:26:19.543Z,21.8
2018-12-24T03:27:09.090Z,21.4
2018-12-24T03:27:59.711Z,21.2
2018-12-24T03:28:50.977Z,20.9
2018-12-24T03:29:40.225Z,20.8
2018-12-24T03:30:31.165Z,20.6
2018-12-24T03:31:20.747Z,20.5
2018-12-24T03:32:09.997Z,20.3
2018-12-24T03:33:00.619Z,20.3
2018-12-24T03:33:50.483Z,20.1
2018-12-24T03:34:40.627Z,20.1
2018-12-24T03:35:30.668Z,19.9
2018-12-24T03:36:20.677Z,19.7
2018-12-24T03:37:11.074Z,19.6
2018-12-24T03:38:00.995Z,19.4
2018-12-24T03:38:51.455Z,19.3
2018-12-24T03:39:40.687Z,19.3
2018-12-24T03:40:31.307Z,19.9
2018-12-24T03:41:20.660Z,20.3
2018-12-24T03:42:10.206Z,20.7
2018-12-24T03:43:00.833Z,21
2018-12-24T03:43:51.009Z,21.3
2018-12-24T03:44:41.170Z,21.4
2018-12-24T03:45:31.562Z,21.6
2018-12-24T03:46:21.569Z,21.8
2018-12-24T03:47:11.436Z,21.9
2018-12-24T03:48:01.744Z,22.1
2018-12-24T03:48:50.331Z,22.1
2018-12-24T03:49:41.383Z,22.3
2018-12-24T03:50:31.247Z,22.4
2018-12-24T03:51:21.692Z,22.4
2018-12-24T03:52:12.425Z,22.5
2018-12-24T03:53:01.570Z,22.6
2018-12-24T03:53:51.565Z,22.6
2018-12-24T03:54:41.874Z,22.7
2018-12-24T03:55:31.957Z,22.8
2018-12-24T03:56:21.720Z,22.8
2018-12-24T03:57:12.325Z,22.8
2018-12-24T03:58:02.419Z,22.8
2018-12-24T03:58:52.165Z,22.3
2018-12-24T03:59:42.194Z,21.5
2018-12-24T04:00:33.105Z,20.7
2018-12-24T04:01:22.392Z,20.1
2018-12-24T04:02:11.603Z,19.4
2018-12-24T04:03:02.146Z,18.8
2018-12-24T04:03:52.956Z,18.1
2018-12-24T04:04:42.120Z,18.1
2018-12-24T04:05:32.053Z,18.3
2018-12-24T04:06:22.706Z,19
2018-12-24T04:07:12.708Z,19.7
2018-12-24T04:08:02.084Z,20.2
2018-12-24T04:08:52.829Z,20.7
2018-12-24T04:09:43.427Z,21.1
2018-12-24T04:10:32.938Z,21.3
2018-12-24T04:11:25.721Z,21.6
2018-12-24T04:12:13.211Z,21.8
2018-12-24T04:13:03.769Z,22
2018-12-24T04:13:53.420Z,22.2
2018-12-24T04:14:42.858Z,22.3
2018-12-24T04:15:33.360Z,22.4
2018-12-24T04:16:23.422Z,22.6
2018-12-24T04:17:12.425Z,22.7
2018-12-24T04:18:03.542Z,22.8
2018-12-24T04:18:52.776Z,22.9
2018-12-24T04:19:42.300Z,22.9
2018-12-24T04:20:32.868Z,23.1
2018-12-24T04:21:25.984Z,23.1
2018-12-24T04:22:13.815Z,23.2
2018-12-24T04:23:03.363Z,23.3
2018-12-24T04:23:53.284Z,23.3
2018-12-24T04:24:43.764Z,23.4
2018-12-24T04:25:34.434Z,23.4
2018-12-24T04:26:24.122Z,22.8
2018-12-24T04:27:13.286Z,22.3
2018-12-24T04:28:03.319Z,21.8
2018-12-24T04:28:54.206Z,21.5
2018-12-24T04:29:44.247Z,21.3
2018-12-24T04:30:36.057Z,21
2018-12-24T04:31:24.226Z,20.8
2018-12-24T04:32:14.234Z,20.6
2018-12-24T04:33:03.974Z,20.5
2018-12-24T04:33:54.896Z,20.4
2018-12-24T04:34:44.914Z,20.3
2018-12-24T04:35:35.286Z,20.2
2018-12-24T04:36:24.423Z,20
2018-12-24T04:37:13.756Z,19.8
2018-12-24T04:38:05.002Z,19.6
2018-12-24T04:38:55.481Z,19.4
2018-12-24T04:39:44.943Z,19.3
2018-12-24T04:40:35.042Z,19.2
2018-12-24T04:41:25.641Z,19.2
2018-12-24T04:42:14.537Z,19.8
2018-12-24T04:43:04.646Z,20.3
2018-12-24T04:43:55.271Z,20.6
2018-12-24T04:44:45.870Z,20.9
2018-12-24T05:02:05.367Z,23.1
2018-12-24T05:02:55.125Z,23.2
2018-12-24T05:03:45.492Z,23.2
2018-12-24T05:04:33.940Z,23.3
2018-12-24T05:05:24.571Z,23.1
2018-12-24T05:06:15.358Z,22.5
2018-12-24T05:07:05.885Z,22.1
2018-12-24T05:07:55.179Z,21.6
2018-12-24T05:08:45.414Z,21.3
2018-12-24T05:09:34.932Z,21.1
2018-12-24T05:10:25.372Z,20.9
2018-12-24T05:11:15.939Z,20.7
2018-12-24T05:12:06.579Z,20.5
2018-12-24T05:12:56.779Z,20.3
2018-12-24T05:13:48.815Z,20.3
2018-12-24T05:14:36.759Z,20.1
2018-12-24T05:15:26.536Z,20.1
2018-12-24T05:16:15.996Z,19.9
2018-12-24T05:17:07.116Z,19.7
2018-12-24T05:17:55.771Z,19.6
2018-12-24T05:18:46.098Z,19.4
2018-12-24T05:19:36.431Z,19.3
2018-12-24T05:20:26.491Z,19.2
2018-12-24T05:21:17.111Z,19.5
2018-12-24T05:22:07.353Z,20
2018-12-24T05:22:56.916Z,20.4
2018-12-24T05:23:46.993Z,20.7
2018-12-24T05:24:37.305Z,20.9
2018-12-24T05:25:25.830Z,21.2
2018-12-24T05:26:17.435Z,21.4
2018-12-24T05:27:08.069Z,21.6
2018-12-24T05:27:56.725Z,21.7
2018-12-24T05:28:47.752Z,21.8
2018-12-24T05:29:37.392Z,21.9
2018-12-24T05:30:27.435Z,22.1
2018-12-24T05:31:17.546Z,22.2
2018-12-24T05:32:07.526Z,22.3
2018-12-24T05:32:57.370Z,22.3
2018-12-24T05:33:47.995Z,22.4
2018-12-24T05:34:37.483Z,22.4
2018-12-24T05:35:26.963Z,22.4
2018-12-24T05:36:16.850Z,22.5
2018-12-24T05:37:08.414Z,22.6
2018-12-24T05:37:58.200Z,22.6
2018-12-24T05:38:47.746Z,22.7
2018-12-24T05:39:37.510Z,22.1
2018-12-24T05:40:27.350Z,21.5
2018-12-24T05:41:17.888Z,20.6
2018-12-24T05:42:07.735Z,20.1
2018-12-24T05:42:57.782Z,19.5
2018-12-24T05:43:56.420Z,18.8
2018-12-24T05:44:38.280Z,18.1
2018-12-24T05:45:28.499Z,17.7
2018-12-24T05:46:17.722Z,17.8
2018-12-24T05:47:07.535Z,18
2018-12-24T05:47:58.925Z,18.8
2018-12-24T05:48:49.074Z,19.5
2018-12-24T05:49:38.584Z,20
2018-12-24T05:50:29.687Z,20.5
2018-12-24T05:51:18.025Z,20.9
2018-12-24T05:52:09.190Z,21.2
2018-12-24T05:52:59.100Z,21.4
2018-12-24T05:53:49.029Z,21.7
2018-12-24T05:54:38.552Z,21.8
2018-12-24T05:55:29.703Z,22
2018-12-24T05:56:19.474Z,22.2
2018-12-24T05:57:09.822Z,22.3
2018-12-24T05:57:59.344Z,22.4
2018-12-24T05:58:49.650Z,22.5
2018-12-24T05:59:38.871Z,22.6
2018-12-24T06:00:30.066Z,22.7
2018-12-24T06:01:19.252Z,22.8
2018-12-24T06:02:09.611Z,22.9
2018-12-24T06:03:00.339Z,22.9
2018-12-24T06:03:50.246Z,23
2018-12-24T06:04:39.871Z,23.1
2018-12-24T06:05:29.560Z,23.1
2018-12-24T06:06:19.871Z,23.2
2018-12-24T06:07:09.714Z,23.3
2018-12-24T06:07:59.969Z,23.3
2018-12-24T06:08:49.758Z,23
2018-12-24T06:09:39.246Z,22.4
2018-12-24T06:10:29.451Z,21.9
2018-12-24T06:11:19.916Z,21.6
2018-12-24T06:12:10.279Z,21.3
2018-12-24T06:13:00.558Z,21.1
2018-12-24T06:13:59.374Z,20.8
2018-12-24T06:14:40.981Z,20.6
2018-12-24T06:15:30.018Z,20.5
2018-12-24T06:16:19.631Z,20.4
2018-12-24T06:17:09.574Z,20.3
2018-12-24T06:18:03.073Z,20.1
2018-12-24T06:18:50.973Z,20.1
2018-12-24T06:19:41.135Z,19.9
2018-12-24T06:20:38.961Z,19.7
2018-12-24T06:21:20.053Z,19.5
2018-12-24T06:22:10.941Z,19.4
2018-12-24T06:23:01.622Z,19.3
2018-12-24T06:23:51.390Z,19.1
2018-12-24T06:24:40.281Z,19.6
2018-12-24T06:25:31.575Z,20.1
2018-12-24T06:26:21.048Z,20.5
2018-12-24T06:27:11.397Z,20.8
2018-12-24T06:28:00.918Z,21.1
2018-12-24T06:28:51.478Z,21.3
2018-12-24T06:29:41.712Z,21.5
2018-12-24T06:30:31.919Z,21.7
2018-12-24T06:31:20.833Z,21.9
2018-12-24T06:32:11.103Z,22
2018-12-24T06:33:01.962Z,22.1
2018-12-24T06:33:51.590Z,22.3
2018-12-24T06:34:40.477Z,22.4
2018-12-24T06:35:32.385Z,22.5
2018-12-24T06:36:21.719Z,22.6
2018-12-24T06:37:11.779Z,22.7
2018-12-24T06:38:02.569Z,22.8
2018-12-24T06:38:52.659Z,22.8
2018-12-24T06:39:42.119Z,22.9
2018-12-24T06:40:31.090Z,22.9
2018-12-24T06:41:22.227Z,23
2018-12-24T06:42:11.972Z,23.1
2018-12-24T06:43:01.909Z,23.1
2018-12-24T06:43:53.465Z,23.1
2018-12-24T06:44:42.568Z,23.2
2018-12-24T06:45:32.627Z,23.3
2018-12-24T06:46:21.447Z,23.3
2018-12-24T06:47:11.692Z,22.9
2018-12-24T06:48:01.957Z,22.3
2018-12-24T06:48:52.039Z,21.9
2018-12-24T06:49:42.616Z,21.5
2018-12-24T06:50:32.864Z,21.3
2018-12-24T06:51:23.399Z,21
2018-12-24T06:52:12.667Z,20.8
2018-12-24T06:53:02.731Z,20.6
2018-12-24T06:53:52.272Z,20.4
2018-12-24T06:54:42.394Z,20.3
2018-12-24T06:55:33.014Z,20.2
2018-12-24T06:56:23.256Z,20.1
2018-12-24T06:57:12.748Z,20.1
2018-12-24T06:58:03.088Z,19.9
2018-12-24T06:58:53.860Z,19.7
2018-12-24T06:59:44.417Z,19.5
2018-12-24T07:00:33.569Z,19.4
2018-12-24T07:01:23.155Z,19.2
2018-12-24T07:02:13.647Z,19.1
2018-12-24T07:03:03.162Z,19.7
2018-12-24T07:03:53.742Z,20.2
2018-12-24T07:04:43.904Z,20.6
2018-12-24T07:05:34.479Z,20.9
2018-12-24T07:07:13.812Z,21.4
2018-12-24T07:08:04.067Z,21.6
2018-12-24T07:08:54.581Z,21.8
2018-12-24T07:09:44.504Z,21.9
2018-12-24T07:10:34.559Z,22
2018-12-24T07:11:24.089Z,22.1
2018-12-24T07:12:14.046Z,22.2
2018-12-24T07:13:03.551Z,22.3
2018-12-24T07:13:53.646Z,22.4
2018-12-24T07:14:44.731Z,22.4
2018-12-24T07:15:34.819Z,22.5
2018-12-24T07:16:24.583Z,22.6
2018-12-24T07:17:15.201Z,22.7
2018-12-24T07:18:04.276Z,22.8
2018-12-24T07:18:54.956Z,22.8
2018-12-24T07:19:44.854Z,22.8
2018-12-24T07:20:33.801Z,22.3
2018-12-24T07:21:24.959Z,21.5
2018-12-24T07:22:14.453Z,20.7
2018-12-24T07:23:04.853Z,20.1
2018-12-24T07:23:55.083Z,19.5
2018-12-24T07:24:45.464Z,18.8
2018-12-24T07:25:34.661Z,18.1
2018-12-24T07:26:25.465Z,17.9
2018-12-24T07:27:15.619Z,18
2018-12-24T07:28:06.173Z,18.6
2018-12-24T07:29:02.947Z,19.4
2018-12-24T07:29:44.373Z,20.1
2018-12-24T07:30:35.286Z,20.5
2018-12-24T07:31:26.393Z,20.9
2018-12-24T07:32:15.725Z,21.3
2018-12-24T07:33:06.205Z,21.6
2018-12-24T07:33:55.796Z,21.8
2018-12-24T07:34:45.505Z,22
2018-12-24T07:35:36.303Z,22.1
2018-12-24T07:36:26.066Z,22.3
2018-12-24T07:37:16.563Z,22.5
2018-12-24T07:38:07.853Z,22.7
2018-12-24T07:38:55.613Z,22.8
2018-12-24T07:39:46.432Z,22.9
2018-12-24T07:40:36.329Z,22.9
2018-12-24T07:41:25.992Z,23.1
2018-12-24T07:42:16.615Z,23.2
2018-12-24T07:43:06.257Z,23.2
2018-12-24T07:43:56.753Z,23.3
2018-12-24T07:44:46.771Z,23.3
2018-12-24T07:45:36.882Z,23.3
2018-12-24T07:46:26.418Z,22.7
2018-12-24T07:47:16.420Z,22.2
2018-12-24T07:48:06.345Z,21.8
2018-12-24T07:48:57.079Z,21.4
2018-12-24T07:50:37.509Z,20.9
2018-12-24T07:51:26.051Z,20.7
2018-12-24T07:52:15.742Z,20.5
2018-12-24T07:53:06.730Z,20.4
2018-12-24T07:53:57.149Z,20.3
2018-12-24T07:54:47.451Z,20.1
2018-12-24T07:55:37.331Z,20.1
2018-12-24T07:56:27.324Z,19.9
2018-12-24T07:57:17.651Z,19.6
2018-12-24T07:58:07.426Z,19.4
2018-12-24T07:58:58.126Z,19.3
2018-12-24T07:59:47.533Z,19.2
2018-12-24T08:00:37.336Z,19.8
2018-12-24T08:01:27.468Z,20.4
2018-12-24T08:02:17.983Z,20.9
2018-12-24T08:03:07.508Z,21.2
2018-12-24T08:03:57.656Z,21.5
2018-12-24T08:04:47.411Z,21.8
2018-12-24T08:05:37.933Z,21.9
2018-12-24T08:06:28.336Z,22.1
2018-12-24T08:07:18.075Z,22.3
2018-12-24T08:08:06.799Z,22.4
2018-12-24T08:08:58.158Z,22.6
2018-12-24T08:09:46.980Z,22.6
2018-12-24T08:10:38.280Z,22.7
2018-12-24T08:11:28.067Z,22.8
2018-12-24T08:12:20.250Z,22.8
2018-12-24T08:13:09.040Z,22.9
2018-12-24T08:13:58.798Z,23
2018-12-24T08:14:48.887Z,23.1
2018-12-24T08:15:38.065Z,23.1
2018-12-24T08:16:28.982Z,23.2
2018-12-24T08:17:17.898Z,23.2
2018-12-24T08:18:09.170Z,23.3
2018-12-24T08:18:58.617Z,23.3
2018-12-24T08:19:47.490Z,22.6
2018-12-24T08:20:38.997Z,22.1
2018-12-24T08:21:28.452Z,21.7
2018-12-24T08:22:19.127Z,21.4
2018-12-24T08:23:08.302Z,21.1
2018-12-24T08:23:58.609Z,20.9
2018-12-24T08:24:48.777Z,20.7
2018-12-24T08:25:39.102Z,20.5
2018-12-24T08:26:29.374Z,20.3
2018-12-24T08:27:19.163Z,20.2
2018-12-24T08:28:09.464Z,20.1
2018-12-24T08:28:59.802Z,20.1
2018-12-24T08:29:49.884Z,19.8
2018-12-24T08:30:38.844Z,19.6
2018-12-24T08:31:29.434Z,19.4
2018-12-24T08:32:19.723Z,19.3
2018-12-24T08:33:09.261Z,19.1
2018-12-24T08:33:59.212Z,19.4
2018-12-24T08:34:49.963Z,20.1
2018-12-24T08:35:40.645Z,20.6
2018-12-24T08:36:29.016Z,21
2018-12-24T08:37:19.686Z,21.3
2018-12-24T08:38:09.706Z,21.6
2018-12-24T08:39:00.183Z,21.8
2018-12-24T08:39:50.269Z,21.9
2018-12-24T08:40:40.561Z,22.1
2018-12-24T08:41:29.806Z,22.3
2018-12-24T08:42:20.248Z,22.4
2018-12-24T08:43:09.935Z,22.5
2018-12-24T08:43:59.421Z,22.6
2018-12-24T08:44:50.813Z,22.7
2018-12-24T08:45:40.113Z,22.8
2018-12-24T08:46:30.505Z,22.9
2018-12-24T08:47:21.147Z,23
2018-12-24T08:48:10.421Z,23.1
2018-12-24T08:49:00.868Z,23.2
2018-12-24T08:49:50.381Z,23.3
2018-12-24T08:50:40.429Z,23.3
2018-12-24T08:51:31.419Z,22.7
2018-12-24T08:52:21.399Z,22.2
2018-12-24T08:53:10.927Z,21.8
2018-12-24T08:54:00.671Z,21.4
2018-12-24T08:54:51.109Z,21.2
2018-12-24T08:55:41.650Z,20.9
2018-12-24T08:56:33.763Z,20.8
2018-12-24T08:57:22.558Z,20.6
2018-12-24T08:58:11.768Z,20.4
2018-12-24T08:59:01.568Z,20.3
2018-12-24T08:59:51.351Z,20.2
2018-12-24T09:00:41.691Z,20.1
2018-12-24T09:16:33.405Z,22.9
2018-12-24T09:17:23.513Z,23.1
2018-12-24T09:18:14.135Z,23.2
2018-12-24T09:19:03.438Z,23.3
2018-12-24T09:19:53.128Z,23.3
2018-12-24T09:20:43.473Z,23.3
2018-12-24T09:21:34.120Z,22.6
2018-12-24T09:22:23.592Z,22.2
2018-12-24T09:23:13.892Z,21.8
2018-12-24T09:24:04.458Z,21.4
2018-12-24T09:24:53.447Z,21.2
2018-12-24T09:25:43.774Z,21
2018-12-24T09:26:34.252Z,20.8
2018-12-24T09:27:24.162Z,20.6
2018-12-24T09:28:13.677Z,20.5
2018-12-24T09:29:05.019Z,20.4
2018-12-24T09:29:54.170Z,20.3
2018-12-24T09:30:45.060Z,20.1
2018-12-24T09:31:34.858Z,20.1
2018-12-24T09:32:23.997Z,19.9
2018-12-24T09:33:14.367Z,19.7
2018-12-24T09:34:03.797Z,19.6
2018-12-24T09:34:53.571Z,19.4
2018-12-24T09:35:44.588Z,19.5
2018-12-24T09:36:34.697Z,20.2
2018-12-24T09:37:24.867Z,20.8
2018-12-24T09:39:04.694Z,21.4
2018-12-24T09:39:54.469Z,21.7
2018-12-24T09:40:44.526Z,22
2018-12-24T09:41:35.535Z,22.2
2018-12-24T09:42:26.070Z,22.4
2018-12-24T09:43:15.252Z,22.6
2018-12-24T09:44:05.353Z,22.8
2018-12-24T09:45:04.179Z,22.9
2018-12-24T09:45:44.680Z,23.1
2018-12-24T09:46:35.508Z,23.1
2018-12-24T09:47:25.370Z,23.3
2018-12-24T09:48:15.683Z,23.4
2018-12-24T09:49:04.368Z,23.4
2018-12-24T09:49:55.188Z,23.5
2018-12-24T09:50:45.760Z,22.9
2018-12-24T09:51:36.162Z,22.4
2018-12-24T09:52:25.793Z,21.9
2018-12-24T09:53:16.632Z,21.6
2018-12-24T09:54:06.272Z,21.3
2018-12-24T09:55:46.162Z,20.9
2018-12-24T09:56:35.963Z,20.8
2018-12-24T09:57:27.047Z,20.6
2018-12-24T09:58:16.387Z,20.5
2018-12-24T09:59:06.632Z,20.4
2018-12-24T09:59:56.499Z,20.2
2018-12-24T10:00:46.512Z,20.1
2018-12-24T10:01:36.127Z,20
2018-12-24T10:02:25.854Z,19.9
2018-12-24T10:03:17.012Z,19.8
2018-12-24T10:04:11.499Z,19.8
2018-12-24T10:04:56.269Z,19.6
2018-12-24T10:05:47.384Z,19.6
2018-12-24T10:06:36.856Z,19.5
2018-12-24T10:07:25.810Z,19.4
2018-12-24T10:08:15.482Z,19.3
2018-12-24T10:09:07.019Z,19.5
2018-12-24T10:09:56.526Z,20.1
2018-12-24T10:10:47.496Z,20.7
2018-12-24T10:12:27.507Z,21.4
2018-12-24T10:13:17.288Z,21.8
2018-12-24T10:14:07.711Z,22.1
2018-12-24T10:14:57.773Z,22.4
2018-12-24T10:15:49.711Z,22.7
2018-12-24T10:16:37.545Z,22.8
2018-12-24T10:17:27.113Z,23
2018-12-24T10:18:17.664Z,23.2
2018-12-24T10:19:07.711Z,23.4
2018-12-24T10:19:58.108Z,23.5
2018-12-24T10:20:47.566Z,23.7
2018-12-24T10:21:38.250Z,23.8
2018-12-24T10:22:28.191Z,23.8
2018-12-24T10:23:18.380Z,23.4
2018-12-24T10:24:08.096Z,22.9
2018-12-24T10:24:56.993Z,22.4
2018-12-24T10:25:48.695Z,22
2018-12-24T10:26:38.261Z,21.6
2018-12-24T10:27:28.592Z,21.3
2018-12-24T10:29:07.932Z,21
2018-12-24T10:29:58.175Z,20.8
2018-12-24T10:30:47.900Z,20.7
2018-12-24T10:31:38.835Z,20.6
2018-12-24T10:32:27.590Z,20.4
2018-12-24T10:33:19.702Z,20.3
2018-12-24T10:34:08.712Z,20.3
2018-12-24T10:34:58.072Z,20.1
2018-12-24T10:35:48.934Z,20
2018-12-24T10:36:38.459Z,19.9
2018-12-24T10:37:28.725Z,19.8
2018-12-24T10:38:19.718Z,19.7
2018-12-24T10:39:09.330Z,19.6
2018-12-24T10:39:58.634Z,19.5
2018-12-24T10:40:48.874Z,19.4
2018-12-24T10:41:38.819Z,19.6
2018-12-24T10:42:29.576Z,20.3
2018-12-24T10:43:19.179Z,20.9
2018-12-24T10:44:08.837Z,21.5
2018-12-24T10:44:59.746Z,21.9
2018-12-24T10:45:49.239Z,22.2
2018-12-24T10:46:38.566Z,22.5
2018-12-24T10:47:28.774Z,22.8
2018-12-24T10:48:20.354Z,22.9
2018-12-24T10:49:10.054Z,23.1
2018-12-24T10:49:59.281Z,23.3
2018-12-24T10:50:50.098Z,23.5
2018-12-24T10:51:39.344Z,23.6
2018-12-24T10:52:29.963Z,23.8
2018-12-24T10:53:18.343Z,23.9
2018-12-24T10:54:09.029Z,23.9
2018-12-24T10:54:59.068Z,23.3
2018-12-24T10:55:50.231Z,22.7
2018-12-24T10:56:41.922Z,22.3
2018-12-24T10:57:30.148Z,21.9
2018-12-24T10:58:20.108Z,21.6
2018-12-24T10:59:10.633Z,21.3
2018-12-24T11:00:48.940Z,21
2018-12-24T11:01:40.373Z,20.9
2018-12-24T11:02:30.811Z,20.7
2018-12-24T11:03:20.205Z,20.6
2018-12-24T11:04:10.583Z,20.5
2018-12-24T11:05:00.637Z,20.4
2018-12-24T11:05:50.378Z,20.3
2018-12-24T11:06:40.525Z,20.2
2018-12-24T11:07:30.220Z,20.1
2018-12-24T11:08:20.216Z,20
2018-12-24T11:09:09.300Z,19.9
2018-12-24T11:10:00.980Z,19.8
2018-12-24T11:10:53.262Z,19.8
2018-12-24T11:11:40.485Z,19.6
2018-12-24T11:12:30.647Z,19.6
2018-12-24T11:13:21.220Z,20
2018-12-24T11:14:11.268Z,20.8
2018-12-24T11:15:00.307Z,21.4
2018-12-24T11:15:50.882Z,21.9
2018-12-24T11:16:40.828Z,22.2
2018-12-24T11:17:31.711Z,22.5
2018-12-24T11:18:20.754Z,22.8
2018-12-24T11:19:11.567Z,22.9
2018-12-24T11:20:02.494Z,23.1
2018-12-24T11:20:50.442Z,23.3
2018-12-24T11:21:40.152Z,23.4
2018-12-24T11:22:30.278Z,23.6
2018-12-24T11:23:21.507Z,23.8
2018-12-24T11:24:10.949Z,23.9
2018-12-24T11:25:01.794Z,23.4
2018-12-24T11:25:50.686Z,22.9
2018-12-24T11:26:41.291Z,22.4
2018-12-24T11:27:31.379Z,22
2018-12-24T11:28:21.991Z,21.8
2018-12-24T11:29:12.233Z,21.5
2018-12-24T11:30:02.786Z,21.3
2018-12-24T11:31:42.141Z,20.9
2018-12-24T11:32:31.461Z,20.8
2018-12-24T11:33:22.918Z,20.7
2018-12-24T11:34:12.031Z,20.6
2018-12-24T11:35:02.538Z,20.5
2018-12-24T11:35:52.443Z,20.4
2018-12-24T11:36:42.485Z,20.3
2018-12-24T11:37:33.021Z,20.2
2018-12-24T11:38:22.838Z,20.1
2018-12-24T11:39:12.625Z,20
2018-12-24T11:40:02.335Z,19.9
2018-12-24T11:40:53.118Z,19.8
2018-12-24T11:41:42.810Z,19.7
2018-12-24T11:42:35.010Z,19.6
2018-12-24T11:43:22.477Z,19.6
2018-12-24T11:44:12.910Z,20.1
2018-12-24T11:45:02.767Z,20.8
2018-12-24T11:45:52.034Z,21.4
2018-12-24T11:46:43.660Z,21.8
2018-12-24T11:47:34.320Z,22.1
2018-12-24T11:48:23.092Z,22.4
2018-12-24T11:49:13.285Z,22.7
2018-12-24T11:50:03.390Z,22.9
2018-12-24T11:50:53.725Z,23.1
2018-12-24T11:51:43.422Z,23.3
2018-12-24T11:52:33.101Z,23.4
2018-12-24T11:53:24.455Z,23.6
2018-12-24T11:54:14.185Z,23.7
2018-12-24T11:55:04.517Z,23.8
2018-12-24T11:55:54.601Z,23.7
2018-12-24T11:56:43.845Z,23.1
2018-12-24T11:57:34.507Z,22.5
2018-12-24T11:58:25.200Z,22.2
2018-12-24T11:59:14.105Z,21.9
2018-12-24T12:00:04.862Z,21.6
2018-12-24T12:00:53.729Z,21.4
2018-12-24T12:01:44.632Z,21.2
2018-12-24T12:02:33.396Z,21.1
2018-12-24T12:03:24.607Z,20.9
2018-12-24T12:04:14.669Z,20.8
2018-12-24T12:05:04.511Z,20.6
2018-12-24T12:05:56.607Z,20.6